Time;durP1;ratioP1;P1;durP2;ratioP2;P2;SDS_P1;SDS_P2;PMS_P1;PMS_P2;Temp;Humidity;BMP_temperature;BMP_pressure;BME280_temperature;BME280_humidity;BME280_pressure;Samples;Min_cycle;Max_cycle;Signal;HPM_P1;HPM_P2
2022/03/07 00:01:26;;;;;;;53.15;28.00;;;;;;;0.95;60.74;97584.70;1703866;84;21044;-90
2022/03/07 00:03:55;;;;;;;55.98;29.18;;;;;;;0.99;61.04;97585.61;1707067;83;21001;-81
2022/03/07 00:06:23;;;;;;;59.73;30.10;;;;;;;0.95;61.17;97580.80;1715103;83;21775;-82
2022/03/07 00:08:51;;;;;;;66.10;31.10;;;;;;;0.91;61.97;97581.66;1723985;83;21096;-82
2022/03/07 00:11:19;;;;;;;63.63;31.57;;;;;;;0.85;62.19;97577.31;1724371;83;21152;-81
2022/03/07 00:13:47;;;;;;;59.48;28.70;;;;;;;0.85;61.41;97575.13;1724451;83;21020;-82
2022/03/07 00:16:15;;;;;;;67.27;31.75;;;;;;;0.83;61.87;97576.87;1724631;83;21012;-81
2022/03/07 00:18:41;;;;;;;60.80;31.12;;;;;;;0.79;62.21;97576.00;1724666;83;21019;-81
2022/03/07 00:21:09;;;;;;;63.92;30.50;;;;;;;0.75;62.07;97580.77;1724596;83;21012;-81
2022/03/07 00:23:37;;;;;;;61.58;29.82;;;;;;;0.70;61.57;97576.82;1724631;83;21477;-82
2022/03/07 00:26:05;;;;;;;56.73;29.70;;;;;;;0.73;61.62;97574.66;1724510;83;21087;-82
2022/03/07 00:28:32;;;;;;;61.50;28.32;;;;;;;0.75;61.51;97575.09;1724334;83;21032;-82
2022/03/07 00:30:59;;;;;;;58.02;29.37;;;;;;;0.77;62.12;97564.25;1687415;85;21036;-81
2022/03/07 00:33:26;;;;;;;57.25;29.05;;;;;;;0.78;62.19;97566.41;1724186;83;21013;-81
2022/03/07 00:35:53;;;;;;;51.98;26.82;;;;;;;0.77;63.77;97567.28;1721785;83;21012;-82
2022/03/07 00:38:20;;;;;;;53.68;26.85;;;;;;;0.76;62.51;97563.82;1684235;85;21013;-83
2022/03/07 00:40:48;;;;;;;57.75;27.90;;;;;;;0.79;61.95;97566.41;1721602;83;21009;-83
2022/03/07 00:43:14;;;;;;;58.10;28.83;;;;;;;0.82;62.19;97559.03;1721642;83;21016;-81
2022/03/07 00:45:41;;;;;;;55.45;27.37;;;;;;;0.79;62.89;97558.59;1721682;83;21048;-81
2022/03/07 00:48:08;;;;;;;53.48;27.22;;;;;;;0.79;62.05;97555.98;1721624;83;21044;-82
2022/03/07 00:50:35;;;;;;;55.50;26.87;;;;;;;0.78;62.82;97555.55;1721555;83;21016;-81
2022/03/07 00:53:02;;;;;;;59.65;27.98;;;;;;;0.79;62.42;97552.52;1721628;83;21461;-82
2022/03/07 00:55:29;;;;;;;55.70;26.55;;;;;;;0.76;63.37;97548.17;1684388;85;21430;-81
2022/03/07 00:57:56;;;;;;;53.28;27.55;;;;;;;0.67;63.60;97547.25;1712472;83;21525;-83
2022/03/07 01:00:23;;;;;;;60.52;28.25;;;;;;;0.69;62.48;97549.00;1690560;84;21016;-83
2022/03/07 01:02:50;;;;;;;56.00;27.50;;;;;;;0.69;62.22;97554.64;1691130;84;21054;-84
2022/03/07 01:05:18;;;;;;;65.75;28.52;;;;;;;0.66;61.93;97546.37;1694763;84;21369;-82
2022/03/07 01:07:44;;;;;;;52.05;26.80;;;;;;;0.59;61.84;97538.11;1681591;83;21351;-81
2022/03/07 01:10:12;;;;;;;50.88;26.12;;;;;;;0.60;61.80;97539.84;1693804;84;21466;-83
2022/03/07 01:12:39;;;;;;;57.23;26.73;;;;;;;0.60;61.75;97542.03;1693475;83;21013;-81
2022/03/07 01:15:07;;;;;;;51.50;26.12;;;;;;;0.62;61.77;97542.89;1707586;83;21053;-81
2022/03/07 01:17:37;;;;;;;57.50;27.15;;;;;;;0.63;61.78;97539.41;1719456;83;21458;-81
2022/03/07 01:20:07;;;;;;;61.35;28.87;;;;;;;0.64;62.28;97541.18;1665138;86;21033;-81
2022/03/07 01:22:35;;;;;;;55.85;27.93;;;;;;;0.66;62.37;97539.85;1665348;86;21007;-80
2022/03/07 01:25:05;;;;;;;62.98;30.27;;;;;;;0.67;62.51;97540.31;1665106;86;21031;-81
2022/03/07 01:27:33;;;;;;;60.78;30.45;;;;;;;0.68;62.43;97544.66;1665256;86;21027;-81
2022/03/07 01:30:00;;;;;;;65.20;29.60;;;;;;;0.70;63.84;97547.28;1665232;86;21027;-81
2022/03/07 01:32:26;;;;;;;62.62;30.37;;;;;;;0.70;62.89;97538.15;1664990;86;21067;-81
2022/03/07 01:34:53;;;;;;;61.88;30.25;;;;;;;0.67;63.21;97539.02;1665045;86;21114;-81
2022/03/07 01:37:19;;;;;;;66.97;32.03;;;;;;;0.69;63.10;97537.27;1665185;86;21020;-81
2022/03/07 01:39:48;;;;;;;64.47;29.18;;;;;;;0.68;63.12;97537.25;1665180;86;21504;-81
2022/03/07 01:42:16;;;;;;;58.68;30.02;;;;;;;0.64;63.85;97538.57;1665261;86;21007;-81
2022/03/07 01:44:43;;;;;;;58.10;28.05;;;;;;;0.62;63.72;97536.38;1665061;86;21460;-81
2022/03/07 01:47:09;;;;;;;54.23;26.70;;;;;;;0.60;63.71;97530.30;1665232;86;21026;-81
2022/03/07 01:49:36;;;;;;;50.40;24.90;;;;;;;0.59;64.70;97527.67;1665298;86;21072;-81
2022/03/07 01:52:04;;;;;;;46.73;24.63;;;;;;;0.58;64.50;97525.49;1665025;86;21457;-81
2022/03/07 01:54:32;;;;;;;45.45;22.37;;;;;;;0.58;63.99;97525.49;1665272;86;21000;-81
2022/03/07 01:56:59;;;;;;;44.48;23.00;;;;;;;0.62;63.84;97529.00;1665318;86;20999;-81
2022/03/07 01:59:30;;;;;;;49.63;23.00;;;;;;;0.62;63.30;97531.16;1665203;86;21039;-81
2022/03/07 02:01:58;;;;;;;43.98;21.52;;;;;;;0.61;63.07;97522.91;1665334;86;21071;-80
2022/03/07 02:04:25;;;;;;;44.03;22.15;;;;;;;0.62;63.10;97532.47;1665368;86;20960;-80
2022/03/07 02:06:53;;;;;;;41.13;22.87;;;;;;;0.64;62.96;97532.05;1643770;85;21032;-80
2022/03/07 02:09:20;;;;;;;45.48;21.48;;;;;;;0.68;62.90;97529.01;1681986;85;21505;-80
2022/03/07 02:11:47;;;;;;;45.48;22.35;;;;;;;0.71;63.05;97526.84;1681765;85;21017;-80
2022/03/07 02:14:24;;;;;;;46.90;24.55;;;;;;;0.72;63.14;97532.06;1681972;85;21028;-81
2022/03/07 02:16:53;;;;;;;42.58;22.13;;;;;;;0.75;62.97;97525.98;1681873;85;21024;-81
2022/03/07 02:19:19;;;;;;;45.48;22.42;;;;;;;0.75;62.79;97525.53;1682023;85;21073;-81
2022/03/07 02:21:57;;;;;;;43.92;22.58;;;;;;;0.75;62.79;97522.08;1681748;85;21474;-81
2022/03/07 02:24:26;;;;;;;47.25;23.98;;;;;;;0.78;62.83;97520.33;1676718;85;21621;-83
2022/03/07 02:27:02;;;;;;;43.75;25.27;;;;;;;0.76;63.41;97519.89;1681620;85;21344;-82
2022/03/07 02:29:30;;;;;;;51.58;25.23;;;;;;;0.69;64.97;97528.14;1656653;85;20982;-82
2022/03/07 02:31:59;;;;;;;51.95;25.30;;;;;;;0.62;65.67;97523.78;1681198;85;21040;-82
2022/03/07 02:34:28;;;;;;;47.90;24.75;;;;;;;0.61;64.49;97532.45;1681006;85;21101;-82
2022/03/07 02:36:54;;;;;;;48.65;23.85;;;;;;;0.53;65.97;97524.61;1680343;85;21076;-82
2022/03/07 02:39:21;;;;;;;45.40;24.40;;;;;;;0.46;66.73;97525.47;1680230;85;21056;-82
2022/03/07 02:41:48;;;;;;;47.75;24.27;;;;;;;0.42;66.33;97527.62;1680297;85;21013;-82
2022/03/07 02:44:15;;;;;;;44.75;22.75;;;;;;;0.38;65.22;97528.05;1679769;85;21545;-82
2022/03/07 02:46:43;;;;;;;45.90;24.55;;;;;;;0.37;65.01;97523.69;1679783;85;21048;-82
2022/03/07 02:49:09;;;;;;;47.95;24.32;;;;;;;0.38;65.41;97523.69;1680574;85;21525;-82
2022/03/07 02:51:36;;;;;;;45.90;22.73;;;;;;;0.35;67.15;97518.48;1681972;85;21486;-82
2022/03/07 02:54:04;;;;;;;45.65;23.02;;;;;;;0.36;65.50;97519.34;1682063;85;21029;-81
2022/03/07 02:56:30;;;;;;;44.23;22.60;;;;;;;0.38;65.34;97515.02;1681850;85;21462;-81
2022/03/07 02:58:57;;;;;;;46.50;23.30;;;;;;;0.38;64.96;97507.20;1681989;85;21056;-82
2022/03/07 03:01:23;;;;;;;46.20;22.80;;;;;;;0.43;64.88;97511.11;1681969;85;21028;-82
2022/03/07 03:03:50;;;;;;;44.60;22.35;;;;;;;0.44;64.81;97512.42;1681859;85;21100;-82
2022/03/07 03:06:17;;;;;;;44.18;21.17;;;;;;;0.46;64.87;97508.52;1678698;85;20980;-82
2022/03/07 03:08:44;;;;;;;47.17;21.37;;;;;;;0.48;65.82;97510.69;1681886;85;21037;-81
2022/03/07 03:11:11;;;;;;;41.83;21.37;;;;;;;0.48;65.44;97512.00;1682080;85;21036;-82
2022/03/07 03:13:38;;;;;;;41.48;21.60;;;;;;;0.44;65.75;97511.55;1681980;85;21029;-81
2022/03/07 03:16:05;;;;;;;45.17;22.40;;;;;;;0.43;65.05;97510.69;1682021;85;21004;-82
2022/03/07 03:18:31;;;;;;;47.33;21.07;;;;;;;0.43;65.15;97511.11;1681933;85;21084;-82
2022/03/07 03:20:58;;;;;;;43.87;22.05;;;;;;;0.42;65.42;97511.98;1681989;85;21016;-81
2022/03/07 03:23:24;;;;;;;38.92;20.52;;;;;;;0.45;65.57;97515.46;1681950;85;21005;-81
2022/03/07 03:25:51;;;;;;;46.58;22.10;;;;;;;0.45;65.81;97515.46;1682071;85;21585;-81
2022/03/07 03:28:18;;;;;;;47.40;22.52;;;;;;;0.45;66.16;97518.07;1682025;85;21033;-81
2022/03/07 03:30:45;;;;;;;41.35;20.40;;;;;;;0.46;66.90;97518.95;1681871;85;21060;-81
2022/03/07 03:33:11;;;;;;;42.48;21.57;;;;;;;0.45;67.11;97519.38;1681932;85;21076;-82
2022/03/07 03:35:38;;;;;;;44.25;21.55;;;;;;;0.46;66.25;97518.95;1686864;85;21064;-81
2022/03/07 03:38:06;;;;;;;36.48;19.48;;;;;;;0.44;66.72;97512.42;1689745;85;21062;-81
2022/03/07 03:40:33;;;;;;;39.60;18.82;;;;;;;0.45;66.57;97512.86;1689834;85;21508;-81
2022/03/07 03:42:59;;;;;;;42.27;20.37;;;;;;;0.42;66.65;97511.56;1689937;84;20989;-81
2022/03/07 03:45:26;;;;;;;35.30;19.07;;;;;;;0.43;67.34;97513.72;1689798;84;21052;-81
2022/03/07 03:47:52;;;;;;;36.55;18.15;;;;;;;0.44;66.19;97505.02;1689813;85;21025;-82
2022/03/07 03:50:19;;;;;;;36.42;19.00;;;;;;;0.41;66.46;97512.86;1689985;85;20997;-82
2022/03/07 03:52:46;;;;;;;37.80;18.07;;;;;;;0.42;67.52;97514.59;1689724;84;21040;-82
2022/03/07 03:55:16;;;;;;;37.28;18.65;;;;;;;0.42;66.82;97514.59;1689920;84;21005;-82
2022/03/07 03:57:44;;;;;;;39.78;17.73;;;;;;;0.44;66.25;97517.64;1689883;85;21479;-82
2022/03/07 04:00:16;;;;;;;35.73;17.82;;;;;;;0.44;67.05;97520.67;1689896;84;21044;-82
2022/03/07 04:02:43;;;;;;;32.70;16.75;;;;;;;0.46;66.65;97518.95;1689897;85;21016;-82
2022/03/07 04:05:12;;;;;;;35.55;16.65;;;;;;;0.46;66.84;97515.05;1689796;85;21033;-82
2022/03/07 04:07:40;;;;;;;33.60;17.95;;;;;;;0.49;66.20;97518.94;1658419;85;21123;-82
2022/03/07 04:10:09;;;;;;;37.40;17.95;;;;;;;0.51;66.30;97508.95;1643067;87;21084;-82
2022/03/07 04:12:36;;;;;;;34.27;17.35;;;;;;;0.57;66.38;97506.80;1643044;87;21456;-80
2022/03/07 04:15:04;;;;;;;35.30;18.20;;;;;;;0.62;66.29;97510.30;1617104;87;21434;-81
2022/03/07 04:17:31;;;;;;;36.05;17.57;;;;;;;0.60;66.71;97515.07;1643084;87;21071;-80
2022/03/07 04:19:58;;;;;;;31.75;17.12;;;;;;;0.59;66.48;97514.64;1642952;87;21466;-80
2022/03/07 04:22:24;;;;;;;35.15;18.20;;;;;;;0.59;67.50;97512.91;1675985;86;20961;-79
2022/03/07 04:24:51;;;;;;;36.98;18.70;;;;;;;0.61;66.31;97514.20;1675988;86;21063;-78
2022/03/07 04:27:18;;;;;;;35.60;17.82;;;;;;;0.56;67.25;97515.50;1675933;86;21039;-78
2022/03/07 04:29:44;;;;;;;39.27;18.27;;;;;;;0.59;66.47;97509.00;1676015;86;21004;-78
2022/03/07 04:32:11;;;;;;;37.75;17.90;;;;;;;0.60;67.19;97511.16;1671344;85;21122;-78
2022/03/07 04:34:37;;;;;;;35.08;18.15;;;;;;;0.62;66.50;97512.05;1674907;84;21026;-79
2022/03/07 04:37:04;;;;;;;29.80;16.85;;;;;;;0.63;66.36;97509.88;1661141;86;21038;-80
2022/03/07 04:39:30;;;;;;;30.10;15.78;;;;;;;0.64;66.42;97512.49;1661038;86;21026;-80
2022/03/07 04:41:57;;;;;;;33.88;17.12;;;;;;;0.65;66.64;97511.62;1660993;86;20977;-80
2022/03/07 04:44:24;;;;;;;31.37;15.35;;;;;;;0.66;66.77;97515.08;1661116;85;21001;-80
2022/03/07 04:46:51;;;;;;;30.68;15.90;;;;;;;0.65;66.56;97515.95;1660673;86;21530;-79
2022/03/07 04:49:17;;;;;;;34.92;16.97;;;;;;;0.68;66.20;97512.48;1661080;86;20997;-79
2022/03/07 04:51:46;;;;;;;33.53;15.32;;;;;;;0.73;65.97;97515.97;1661169;86;21002;-79
2022/03/07 04:54:14;;;;;;;32.42;16.57;;;;;;;0.75;65.80;97512.49;1661110;86;21006;-80
2022/03/07 04:56:45;;;;;;;29.98;15.98;;;;;;;0.78;65.73;97519.03;1661030;86;21005;-81
2022/03/07 04:59:13;;;;;;;36.68;19.30;;;;;;;0.79;65.37;97518.61;1661139;86;21415;-81
2022/03/07 05:01:40;;;;;;;36.08;17.95;;;;;;;0.77;65.25;97520.33;1660980;86;21460;-81
2022/03/07 05:04:07;;;;;;;39.08;19.60;;;;;;;0.72;65.07;97522.94;1661142;86;20994;-81
2022/03/07 05:06:34;;;;;;;39.45;19.80;;;;;;;0.72;64.98;97517.72;1668265;85;21000;-81
2022/03/07 05:09:01;;;;;;;38.10;18.85;;;;;;;0.72;64.98;97520.75;1693960;85;21552;-81
2022/03/07 05:11:28;;;;;;;36.15;17.90;;;;;;;0.77;64.96;97516.41;1693960;85;21004;-81
2022/03/07 05:13:54;;;;;;;35.08;17.70;;;;;;;0.84;64.95;97519.91;1693790;85;20988;-81
2022/03/07 05:16:21;;;;;;;35.63;17.20;;;;;;;0.85;64.61;97521.64;1693946;85;21531;-82
2022/03/07 05:18:49;;;;;;;36.03;17.52;;;;;;;0.82;64.44;97522.50;1693962;85;20988;-81
2022/03/07 05:21:16;;;;;;;34.53;19.48;;;;;;;0.84;64.46;97515.99;1693953;85;21076;-82
2022/03/07 05:23:43;;;;;;;34.90;18.70;;;;;;;0.84;64.35;97519.48;1693780;84;21509;-80
2022/03/07 05:26:10;;;;;;;37.33;18.65;;;;;;;0.79;64.26;97522.06;1694035;85;20981;-80
2022/03/07 05:28:37;;;;;;;36.48;19.17;;;;;;;0.79;64.26;97522.06;1694023;85;21060;-80
2022/03/07 05:31:04;;;;;;;37.10;18.32;;;;;;;0.77;64.25;97526.84;1693894;85;21425;-80
2022/03/07 05:33:30;;;;;;;38.75;19.25;;;;;;;0.77;64.31;97530.76;1693931;85;21398;-80
2022/03/07 05:35:56;;;;;;;33.58;18.17;;;;;;;0.76;64.26;97527.30;1700141;84;21037;-80
2022/03/07 05:38:23;;;;;;;38.48;17.95;;;;;;;0.71;64.32;97529.00;1707164;84;21017;-80
2022/03/07 05:40:50;;;;;;;35.75;17.90;;;;;;;0.71;64.32;97523.78;1707275;84;21064;-80
2022/03/07 05:43:16;;;;;;;37.20;18.40;;;;;;;0.74;64.37;97525.52;1709438;83;21462;-80
2022/03/07 05:45:43;;;;;;;39.42;18.85;;;;;;;0.78;64.46;97523.36;1712929;83;21012;-80
2022/03/07 05:48:11;;;;;;;39.30;18.05;;;;;;;0.81;64.49;97522.50;1708874;83;21033;-81
2022/03/07 05:50:38;;;;;;;35.20;18.37;;;;;;;0.80;64.39;97521.64;1707044;84;21063;-80
2022/03/07 05:53:04;;;;;;;37.33;19.05;;;;;;;0.77;64.46;97517.72;1707280;84;21419;-81
2022/03/07 05:55:31;;;;;;;36.85;17.90;;;;;;;0.80;64.60;97520.34;1702648;84;21016;-81
2022/03/07 05:58:00;;;;;;;35.70;18.95;;;;;;;0.83;65.52;97522.09;1676562;84;20968;-81
2022/03/07 06:00:28;;;;;;;39.35;19.32;;;;;;;0.83;65.06;97524.23;1673700;86;21088;-81
2022/03/07 06:02:55;;;;;;;35.03;18.65;;;;;;;0.83;65.22;97528.16;1641011;87;21028;-81
2022/03/07 06:05:22;;;;;;;37.45;20.72;;;;;;;0.85;65.25;97525.13;1644307;86;21033;-80
2022/03/07 06:07:49;;;;;;;37.83;19.40;;;;;;;0.74;65.78;97532.05;1673575;84;21465;-81
2022/03/07 06:10:16;;;;;;;43.58;21.60;;;;;;;0.60;67.68;97535.52;1673291;86;21115;-81
2022/03/07 06:12:42;;;;;;;39.45;19.52;;;;;;;0.63;67.41;97535.95;1673398;86;21001;-81
2022/03/07 06:15:10;;;;;;;36.58;18.82;;;;;;;0.55;69.68;97532.02;1672808;86;21009;-81
2022/03/07 06:17:36;;;;;;;40.38;19.50;;;;;;;0.56;67.31;97529.84;1673676;86;21060;-80
2022/03/07 06:20:05;;;;;;;36.63;19.00;;;;;;;0.57;67.34;97529.39;1672803;86;20981;-81
2022/03/07 06:22:32;;;;;;;35.60;18.15;;;;;;;0.60;67.80;97529.41;1667924;85;21044;-81
2022/03/07 06:24:59;;;;;;;39.13;19.85;;;;;;;0.62;67.34;97534.22;1667978;85;21125;-81
2022/03/07 06:27:25;;;;;;;39.35;19.05;;;;;;;0.67;67.97;97535.52;1673359;85;21030;-81
2022/03/07 06:29:52;;;;;;;32.83;17.95;;;;;;;0.71;68.30;97535.97;1673455;86;21441;-81
2022/03/07 06:32:23;;;;;;;31.93;16.77;;;;;;;0.69;68.60;97532.47;1673159;85;21248;-81
2022/03/07 06:34:48;;;;;;;36.90;17.48;;;;;;;0.75;67.69;97537.27;1673251;86;21102;-80
2022/03/07 06:37:15;;;;;;;34.80;17.07;;;;;;;0.73;67.60;97531.19;1663094;84;21092;-80
2022/03/07 06:39:42;;;;;;;32.85;17.75;;;;;;;0.76;67.62;97539.04;1644411;87;21060;-79
2022/03/07 06:42:09;;;;;;;33.48;17.70;;;;;;;0.85;68.53;97542.09;1644726;87;21024;-79
2022/03/07 06:44:39;;;;;;;30.97;16.73;;;;;;;0.91;68.22;97541.20;1644599;87;21438;-78
2022/03/07 06:47:05;;;;;;;29.87;16.23;;;;;;;0.95;69.20;97539.50;1644170;87;21032;-78
2022/03/07 06:49:31;;;;;;;32.60;16.70;;;;;;;0.96;68.16;97541.23;1644527;87;21577;-78
2022/03/07 06:51:57;;;;;;;31.15;16.62;;;;;;;0.99;68.43;97543.41;1644656;87;21024;-78
2022/03/07 06:54:24;;;;;;;29.98;16.20;;;;;;;0.97;68.36;97540.36;1644428;87;21031;-78
2022/03/07 06:56:51;;;;;;;30.40;15.25;;;;;;;0.97;68.22;97539.05;1644257;87;21191;-77
2022/03/07 06:59:17;;;;;;;31.55;16.30;;;;;;;0.89;68.08;97545.15;1644560;87;21079;-78
2022/03/07 07:01:44;;;;;;;31.02;15.58;;;;;;;0.89;67.66;97539.05;1644556;87;21008;-77
2022/03/07 07:04:10;;;;;;;33.20;16.25;;;;;;;0.92;68.16;97545.59;1644021;87;21479;-77
2022/03/07 07:06:40;;;;;;;34.03;15.83;;;;;;;0.96;67.59;97540.81;1699087;83;21432;-77
2022/03/07 07:09:07;;;;;;;30.90;15.63;;;;;;;0.87;67.53;97549.92;1697277;83;21010;-78
2022/03/07 07:11:33;;;;;;;31.45;15.32;;;;;;;0.83;67.89;97547.72;1697549;84;20982;-78
2022/03/07 07:14:00;;;;;;;39.35;21.20;;;;;;;0.65;69.16;97548.55;1697507;84;21435;-77
2022/03/07 07:16:26;;;;;;;32.38;15.30;;;;;;;0.71;68.10;97541.19;1697439;84;21017;-79
2022/03/07 07:18:53;;;;;;;31.27;15.18;;;;;;;0.69;69.87;97549.42;1697623;84;21491;-77
2022/03/07 07:21:19;;;;;;;35.15;15.48;;;;;;;0.65;69.87;97545.52;1697460;84;20998;-77
2022/03/07 07:23:46;;;;;;;35.05;16.60;;;;;;;0.63;70.66;97546.38;1697782;84;21072;-85
2022/03/07 07:26:13;;;;;;;28.12;15.28;;;;;;;0.71;69.24;97545.95;1697448;84;21057;-76
2022/03/07 07:28:40;;;;;;;33.90;15.08;;;;;;;0.73;70.73;97544.23;1697401;84;21392;-78
2022/03/07 07:31:06;;;;;;;32.15;15.88;;;;;;;0.76;70.53;97545.56;1697479;84;21017;-81
2022/03/07 07:33:33;;;;;;;34.35;17.48;;;;;;;0.85;70.68;97539.48;1697507;84;21030;-81
2022/03/07 07:35:59;;;;;;;33.42;16.02;;;;;;;0.91;70.65;97544.70;1696041;84;20998;-82
2022/03/07 07:38:26;;;;;;;30.55;15.45;;;;;;;0.96;69.98;97543.84;1692305;85;21121;-81
2022/03/07 07:40:55;;;;;;;32.95;16.05;;;;;;;1.06;69.45;97535.16;1692176;85;21030;-82
2022/03/07 07:43:21;;;;;;;33.35;16.57;;;;;;;1.14;70.03;97543.88;1692362;85;21519;-82
2022/03/07 07:45:48;;;;;;;33.83;16.30;;;;;;;1.07;70.00;97541.26;1692525;85;21030;-88
2022/03/07 07:48:15;;;;;;;33.23;15.88;;;;;;;1.15;69.76;97534.28;1692678;84;21042;-89
2022/03/07 07:50:41;;;;;;;34.98;17.60;;;;;;;1.24;69.57;97536.91;1705562;83;21477;-76
2022/03/07 07:53:08;;;;;;;33.08;16.57;;;;;;;1.26;70.84;97539.52;1698315;84;21064;-76
2022/03/07 07:55:36;;;;;;;29.32;14.85;;;;;;;1.26;71.37;97536.91;1697895;84;21458;-76
2022/03/07 07:58:02;;;;;;;32.40;15.68;;;;;;;1.22;70.31;97534.73;1698407;84;21029;-76
2022/03/07 08:00:29;;;;;;;32.13;15.85;;;;;;;1.18;71.44;97532.99;1699285;84;21002;-76
2022/03/07 08:02:55;;;;;;;27.93;15.20;;;;;;;1.21;69.99;97531.70;1699096;84;21471;-76
2022/03/07 08:05:22;;;;;;;28.65;15.40;;;;;;;1.30;70.38;97533.44;1699085;84;21467;-75
2022/03/07 08:07:50;;;;;;;29.18;14.25;;;;;;;1.34;70.17;97531.69;1699242;84;21001;-76
2022/03/07 08:10:17;;;;;;;28.52;14.53;;;;;;;1.46;69.94;97529.09;1699130;84;21113;-76
2022/03/07 08:12:45;;;;;;;29.75;15.05;;;;;;;1.51;69.36;97518.20;1699239;84;21065;-76
2022/03/07 08:15:14;;;;;;;29.55;15.08;;;;;;;1.56;69.37;97527.32;1699242;84;21002;-75
2022/03/07 08:17:49;;;;;;;27.55;14.20;;;;;;;1.56;68.90;97526.89;1699099;84;21423;-75
2022/03/07 08:20:20;;;;;;;26.90;14.33;;;;;;;1.53;69.14;97523.42;1699549;84;21061;-75
2022/03/07 08:22:48;;;;;;;26.45;14.07;;;;;;;1.53;68.93;97535.17;1699265;84;21053;-75
2022/03/07 08:25:14;;;;;;;27.90;14.03;;;;;;;1.48;68.81;97529.05;1699103;84;20985;-75
2022/03/07 08:27:42;;;;;;;29.15;14.40;;;;;;;1.43;68.97;97533.88;1699119;84;21577;-75
2022/03/07 08:30:12;;;;;;;27.80;13.68;;;;;;;1.39;68.99;97528.64;1699221;84;21001;-75
2022/03/07 08:32:43;;;;;;;30.48;15.00;;;;;;;1.44;68.58;97523.86;1699101;84;21021;-76
2022/03/07 08:35:12;;;;;;;30.97;14.65;;;;;;;1.43;69.27;97525.16;1699217;84;21038;-76
2022/03/07 08:37:38;;;;;;;26.15;13.05;;;;;;;1.45;69.34;97515.14;1703164;84;21041;-76
2022/03/07 08:40:08;;;;;;;29.80;13.60;;;;;;;1.43;68.90;97523.43;1704158;84;20998;-76
2022/03/07 08:42:36;;;;;;;25.32;13.58;;;;;;;1.43;68.82;97523.43;1704226;84;21004;-75
2022/03/07 08:45:04;;;;;;;24.82;13.03;;;;;;;1.43;68.83;97515.59;1704161;84;21025;-75
2022/03/07 08:47:31;;;;;;;26.02;13.00;;;;;;;1.50;68.43;97513.82;1704079;84;21104;-75
2022/03/07 08:49:57;;;;;;;25.92;13.38;;;;;;;1.56;68.68;97521.67;1704184;84;21451;-75
2022/03/07 08:52:24;;;;;;;25.35;12.98;;;;;;;1.67;68.42;97511.64;1704172;84;20998;-75
2022/03/07 08:54:51;;;;;;;26.25;13.03;;;;;;;1.71;67.52;97511.62;1704239;84;21077;-74
2022/03/07 08:57:17;;;;;;;20.85;11.53;;;;;;;1.80;67.48;97504.64;1704142;84;21041;-74
2022/03/07 08:59:45;;;;;;;24.07;12.53;;;;;;;1.80;67.00;97515.98;1704072;84;21017;-74
2022/03/07 09:02:12;;;;;;;23.80;12.03;;;;;;;1.83;66.78;97505.50;1704241;84;21056;-74
2022/03/07 09:04:40;;;;;;;24.20;12.85;;;;;;;2.01;67.00;97489.77;1704130;84;21033;-75
2022/03/07 09:07:08;;;;;;;22.27;12.23;;;;;;;2.18;66.85;97492.31;1703852;84;21089;-75
2022/03/07 09:09:35;;;;;;;21.40;11.90;;;;;;;2.32;65.99;97487.90;1704197;84;21037;-76
2022/03/07 09:12:08;;;;;;;21.40;11.53;;;;;;;2.42;66.00;97497.02;1704216;84;21511;-75
2022/03/07 09:14:35;;;;;;;22.65;11.60;;;;;;;2.42;64.23;97480.89;1704047;84;21494;-75
2022/03/07 09:17:02;;;;;;;24.37;11.20;;;;;;;2.47;64.07;97483.05;1704143;84;21056;-75
2022/03/07 09:19:29;;;;;;;23.12;11.55;;;;;;;2.59;63.81;97479.92;1704245;84;21020;-76
2022/03/07 09:21:55;;;;;;;22.52;11.40;;;;;;;2.74;63.18;97477.20;1704128;84;21030;-76
2022/03/07 09:24:23;;;;;;;21.93;10.48;;;;;;;2.87;61.56;97479.29;1704276;84;21485;-76
2022/03/07 09:26:50;;;;;;;21.35;11.65;;;;;;;3.05;61.88;97466.95;1704172;84;21425;-76
2022/03/07 09:29:18;;;;;;;19.05;10.95;;;;;;;3.24;61.36;97469.43;1704025;84;21068;-76
2022/03/07 09:31:45;;;;;;;20.57;11.43;;;;;;;3.45;58.11;97472.30;1704082;84;20997;-75
2022/03/07 09:34:13;;;;;;;20.35;11.38;;;;;;;3.42;56.44;97465.34;1704267;84;21024;-75
2022/03/07 09:36:40;;;;;;;20.55;12.07;;;;;;;3.51;56.29;97473.97;1702581;84;21049;-75
2022/03/07 09:39:07;;;;;;;20.23;11.73;;;;;;;3.66;56.72;97467.72;1699092;84;21451;-76
2022/03/07 09:41:34;;;;;;;19.98;11.43;;;;;;;3.84;55.50;97467.97;1698990;84;21013;-76
2022/03/07 09:44:01;;;;;;;24.07;12.90;;;;;;;4.06;57.25;97460.72;1702752;84;21100;-76
2022/03/07 09:46:28;;;;;;;23.12;12.33;;;;;;;4.26;55.15;97463.53;1699187;84;21009;-75
2022/03/07 09:48:55;;;;;;;22.00;11.78;;;;;;;4.34;55.62;97463.00;1698954;84;21038;-75
2022/03/07 09:51:21;;;;;;;36.50;19.12;;;;;;;4.55;54.31;97458.34;1699186;84;21061;-75
2022/03/07 09:53:48;;;;;;;20.20;11.83;;;;;;;4.77;54.52;97462.42;1699063;84;21034;-75
2022/03/07 09:56:15;;;;;;;24.20;12.15;;;;;;;4.98;55.39;97458.60;1699048;84;21009;-75
2022/03/07 09:58:42;;;;;;;18.15;10.93;;;;;;;5.01;52.39;97452.85;1699163;84;21057;-75
2022/03/07 10:01:19;;;;;;;18.27;11.18;;;;;;;5.06;50.96;97453.23;1699126;84;21055;-76
2022/03/07 10:03:48;;;;;;;21.33;10.35;;;;;;;5.11;52.21;97456.18;1699072;84;21491;-75
2022/03/07 10:06:19;;;;;;;19.37;11.08;;;;;;;5.05;50.70;97455.41;1699064;84;21387;-75
2022/03/07 10:08:58;;;;;;;19.32;10.23;;;;;;;5.15;51.23;97451.30;1699194;84;21570;-75
2022/03/07 10:11:27;;;;;;;17.57;10.35;;;;;;;5.30;49.92;97444.05;1698972;84;21483;-76
2022/03/07 10:14:03;;;;;;;15.88;9.75;;;;;;;5.33;50.67;97441.38;1699093;84;21009;-75
2022/03/07 10:16:43;;;;;;;17.90;10.25;;;;;;;5.36;48.35;97443.09;1699072;84;21037;-75
2022/03/07 10:19:13;;;;;;;19.10;10.38;;;;;;;5.43;49.99;97442.55;1699166;84;21041;-75
2022/03/07 10:21:52;;;;;;;18.42;10.78;;;;;;;5.52;47.38;97435.34;1699075;84;21026;-75
2022/03/07 10:24:32;;;;;;;18.23;10.32;;;;;;;5.49;46.75;97435.39;1699047;84;21499;-76
2022/03/07 10:26:59;;;;;;;18.05;10.85;;;;;;;5.53;48.61;97438.38;1699105;84;21069;-75
2022/03/07 10:29:26;;;;;;;20.50;10.58;;;;;;;5.62;49.21;97422.03;1699092;84;21024;-75
2022/03/07 10:31:53;;;;;;;17.57;10.53;;;;;;;5.58;46.20;97433.06;1698746;84;21049;-75
2022/03/07 10:34:19;;;;;;;16.32;9.93;;;;;;;5.54;47.97;97434.88;1674434;84;21028;-75
2022/03/07 10:36:48;;;;;;;17.25;10.72;;;;;;;5.40;47.31;97435.11;1699025;84;21490;-75
2022/03/07 10:39:25;;;;;;;17.45;9.90;;;;;;;5.31;45.78;97427.39;1698913;84;21033;-75
2022/03/07 10:41:52;;;;;;;19.57;10.45;;;;;;;5.04;45.23;97431.36;1698986;84;21073;-75
2022/03/07 10:44:30;;;;;;;19.30;10.95;;;;;;;4.94;47.31;97416.21;1699043;84;20998;-75
2022/03/07 10:47:09;;;;;;;16.93;10.15;;;;;;;5.01;47.92;97412.14;1698994;84;21053;-75
2022/03/07 10:49:58;;;;;;;17.05;9.28;;;;;;;4.93;45.48;97411.39;1699070;84;21041;-75
2022/03/07 10:52:28;;;;;;;17.25;9.03;;;;;;;4.88;45.12;97407.97;1699043;84;21022;-75
2022/03/07 10:54:54;;;;;;;14.95;8.85;;;;;;;4.97;46.26;97416.14;1699262;84;21034;-75
2022/03/07 10:57:22;;;;;;;14.75;8.48;;;;;;;4.94;45.31;97410.49;1699074;84;21061;-75
2022/03/07 10:59:49;;;;;;;15.20;8.65;;;;;;;5.01;44.98;97409.52;1699045;84;21033;-76
2022/03/07 11:02:17;;;;;;;16.90;8.98;;;;;;;5.32;45.58;97415.13;1699125;84;21002;-76
2022/03/07 11:04:50;;;;;;;18.05;9.25;;;;;;;5.80;45.30;97410.28;1699033;84;21041;-76
2022/03/07 11:07:17;;;;;;;15.32;8.50;;;;;;;6.63;43.13;97400.23;1698948;84;21041;-76
2022/03/07 11:09:49;;;;;;;17.45;10.68;;;;;;;7.43;39.14;97392.55;1699103;84;21014;-76
2022/03/07 11:12:14;;;;;;;20.95;12.82;;;;;;;8.05;40.88;97378.97;1698697;83;21061;-76
2022/03/07 11:14:43;;;;;;;15.88;9.40;;;;;;;8.00;39.48;97374.72;1698932;84;21056;-76
2022/03/07 11:17:17;;;;;;;13.78;9.15;;;;;;;8.22;38.66;97377.59;1699061;84;20978;-76
2022/03/07 11:19:53;;;;;;;16.45;9.73;;;;;;;7.66;38.63;97368.20;1698913;84;20989;-75
2022/03/07 11:22:21;;;;;;;14.63;9.10;;;;;;;7.28;39.09;97372.74;1699107;84;21005;-76
2022/03/07 11:24:47;;;;;;;13.95;8.70;;;;;;;6.82;39.23;97369.50;1699143;84;21093;-75
2022/03/07 11:27:17;;;;;;;17.77;11.35;;;;;;;6.67;40.67;97369.41;1698931;84;21053;-76
2022/03/07 11:29:44;;;;;;;15.23;8.43;;;;;;;6.61;40.58;97362.55;1699025;84;21025;-75